Time;durP1;ratioP1;P1;durP2;ratioP2;P2;SDS_P1;SDS_P2;PMS_P1;PMS_P2;Temp;Humidity;BMP_temperature;BMP_pressure;BME280_temperature;BME280_humidity;BME280_pressure;Samples;Min_cycle;Max_cycle;Signal;HPM_P1;HPM_P2
2021/03/06 00:02:10;;;;;;;27.10;2.63;;;-0.40;99.90;;;;;;5054783;28;20508;-75
2021/03/06 00:04:35;;;;;;;12.18;2.17;;;-0.30;99.90;;;;;;5056059;28;20476;-75
2021/03/06 00:07:02;;;;;;;18.88;2.53;;;-0.10;99.90;;;;;;5068420;28;20025;-75
2021/03/06 00:09:27;;;;;;;21.50;3.08;;;-0.10;99.90;;;;;;5053501;28;20021;-75
2021/03/06 00:11:53;;;;;;;9.75;2.10;;;0.00;99.90;;;;;;5054571;28;20074;-75
2021/03/06 00:14:18;;;;;;;22.30;2.33;;;0.00;99.90;;;;;;5054520;28;20029;-75
2021/03/06 00:16:44;;;;;;;16.27;2.72;;;0.00;99.90;;;;;;5054462;28;20044;-75
2021/03/06 00:19:09;;;;;;;13.23;3.10;;;0.10;99.90;;;;;;5054643;28;20021;-75
2021/03/06 00:21:35;;;;;;;18.70;2.35;;;0.10;99.90;;;;;;5053278;28;20035;-75
2021/03/06 00:24:00;;;;;;;29.10;2.33;;;0.10;99.90;;;;;;5053846;28;20056;-75
2021/03/06 00:26:26;;;;;;;19.15;2.67;;;0.20;99.90;;;;;;5072929;28;20534;-75
2021/03/06 00:28:51;;;;;;;14.50;2.70;;;0.30;99.90;;;;;;5072302;28;20119;-75
2021/03/06 00:31:17;;;;;;;18.13;2.40;;;0.30;99.90;;;;;;5054470;28;20029;-75
2021/03/06 00:33:43;;;;;;;8.93;2.00;;;0.30;99.90;;;;;;5053690;28;20021;-75
2021/03/06 00:36:08;;;;;;;7.68;2.60;;;0.40;99.90;;;;;;5054572;28;20488;-75
2021/03/06 00:38:34;;;;;;;17.73;2.60;;;0.50;99.90;;;;;;5054164;28;20037;-75
2021/03/06 00:40:59;;;;;;;11.57;2.50;;;0.60;99.90;;;;;;5054008;28;20039;-75
2021/03/06 00:43:25;;;;;;;17.92;3.05;;;0.60;99.90;;;;;;5054232;28;20108;-75
2021/03/06 00:45:50;;;;;;;11.02;2.53;;;0.70;99.90;;;;;;5071484;28;20036;-75
2021/03/06 00:48:16;;;;;;;20.08;2.75;;;0.70;99.90;;;;;;5074193;28;20517;-75
2021/03/06 00:50:41;;;;;;;9.25;2.28;;;0.80;99.90;;;;;;5074091;28;20030;-75
2021/03/06 00:53:07;;;;;;;16.27;2.70;;;0.80;99.90;;;;;;5072155;28;20107;-75
2021/03/06 00:55:33;;;;;;;14.43;2.53;;;0.80;99.90;;;;;;5060151;28;20021;-75
2021/03/06 00:57:58;;;;;;;8.52;2.13;;;0.90;99.90;;;;;;5053782;28;20040;-75
2021/03/06 01:00:24;;;;;;;23.83;2.97;;;0.90;99.90;;;;;;5054196;28;20478;-75
2021/03/06 01:02:50;;;;;;;17.75;2.53;;;1.00;99.90;;;;;;5052434;28;20029;-75
2021/03/06 01:05:16;;;;;;;19.30;2.47;;;1.00;99.90;;;;;;5059126;28;20396;-75
2021/03/06 01:07:42;;;;;;;13.07;2.53;;;1.00;99.90;;;;;;5061854;28;20107;-75
2021/03/06 01:10:14;;;;;;;21.95;3.33;;;1.00;99.90;;;;;;5053713;28;20025;-75
2021/03/06 01:12:40;;;;;;;10.02;2.47;;;1.00;99.90;;;;;;5053660;28;20151;-75
2021/03/06 01:15:06;;;;;;;13.50;2.20;;;0.90;99.90;;;;;;5053425;28;20167;-75
2021/03/06 01:17:32;;;;;;;15.75;2.83;;;0.90;99.90;;;;;;5053400;28;20159;-75
2021/03/06 01:19:58;;;;;;;6.20;2.53;;;0.90;99.90;;;;;;5053492;28;20107;-75
2021/03/06 01:22:23;;;;;;;23.23;3.67;;;0.90;99.90;;;;;;5053366;28;20025;-75
2021/03/06 01:24:49;;;;;;;8.73;2.58;;;0.90;99.90;;;;;;5059073;28;20025;-75
2021/03/06 01:27:14;;;;;;;15.13;2.38;;;0.90;99.90;;;;;;5073080;28;20233;-75
2021/03/06 01:29:40;;;;;;;10.85;2.17;;;1.00;99.90;;;;;;5063476;28;20029;-75
2021/03/06 01:32:06;;;;;;;15.13;2.33;;;1.10;99.90;;;;;;5053284;28;20044;-75
2021/03/06 01:34:31;;;;;;;15.10;1.80;;;1.20;99.90;;;;;;5052860;28;20017;-75
2021/03/06 01:36:57;;;;;;;11.98;3.28;;;1.20;99.90;;;;;;5052870;28;20028;-75
2021/03/06 01:39:23;;;;;;;26.67;2.95;;;1.30;99.90;;;;;;5052981;28;20024;-75
2021/03/06 01:41:50;;;;;;;17.10;2.70;;;1.40;99.90;;;;;;5051688;28;20036;-75
2021/03/06 01:44:16;;;;;;;22.60;2.63;;;1.40;99.90;;;;;;5057228;28;20078;-75
2021/03/06 01:46:42;;;;;;;19.08;2.78;;;1.50;99.90;;;;;;5071681;28;20029;-75
2021/03/06 01:49:08;;;;;;;33.60;2.47;;;1.50;99.90;;;;;;5072778;28;20035;-75
2021/03/06 01:51:33;;;;;;;23.40;2.58;;;1.50;99.90;;;;;;5072652;28;20028;-75
2021/03/06 01:54:01;;;;;;;35.20;4.63;;;1.60;99.90;;;;;;5071913;28;20025;-75
2021/03/06 01:56:28;;;;;;;22.25;2.85;;;1.70;99.90;;;;;;5052978;28;20057;-75
2021/03/06 01:58:54;;;;;;;16.88;2.22;;;1.70;99.90;;;;;;5052104;28;20534;-75
2021/03/06 02:01:19;;;;;;;26.27;3.40;;;1.80;99.90;;;;;;5051348;28;20116;-75
2021/03/06 02:03:45;;;;;;;29.77;3.28;;;1.90;99.90;;;;;;5051386;28;20477;-75
2021/03/06 02:06:11;;;;;;;23.08;3.28;;;2.00;99.90;;;;;;5067161;28;20058;-75
2021/03/06 02:08:36;;;;;;;21.33;3.47;;;2.00;99.90;;;;;;5053097;28;20037;-75
2021/03/06 02:11:02;;;;;;;24.67;3.78;;;1.90;99.90;;;;;;5052456;28;20032;-75
2021/03/06 02:13:44;;;;;;;28.95;3.08;;;2.00;99.90;;;;;;5052258;28;20033;-75
2021/03/06 02:16:17;;;;;;;28.27;3.45;;;2.00;99.90;;;;;;5051060;28;20036;-75
2021/03/06 02:18:55;;;;;;;25.90;4.13;;;2.00;99.90;;;;;;5052388;28;20025;-75
2021/03/06 02:21:36;;;;;;;42.28;3.20;;;2.00;99.90;;;;;;5051990;28;20025;-75
2021/03/06 02:24:34;;;;;;;48.08;6.25;;;2.00;99.90;;;;;;5050291;28;20025;-75
2021/03/06 02:27:20;;;;;;;19.05;2.45;;;2.00;99.90;;;;;;5067330;28;20029;-74
2021/03/06 02:29:45;;;;;;;34.20;4.32;;;2.00;99.90;;;;;;5052368;28;20483;-75
2021/03/06 02:32:21;;;;;;;23.83;3.25;;;1.90;99.90;;;;;;5052117;28;20092;-75
2021/03/06 02:34:54;;;;;;;20.67;3.15;;;1.80;99.90;;;;;;5051934;28;20648;-75
2021/03/06 02:37:24;;;;;;;14.55;2.67;;;1.80;99.90;;;;;;5050676;28;20059;-75
2021/03/06 02:39:53;;;;;;;21.30;3.17;;;1.70;99.90;;;;;;5050671;28;20040;-75
2021/03/06 02:42:23;;;;;;;50.60;3.92;;;1.50;99.90;;;;;;5050683;28;20029;-75
2021/03/06 02:44:50;;;;;;;27.35;3.25;;;1.40;99.90;;;;;;5060325;28;20539;-75
2021/03/06 02:47:17;;;;;;;22.50;3.33;;;1.40;99.90;;;;;;5071790;28;20036;-75
2021/03/06 02:49:50;;;;;;;34.85;3.63;;;1.30;99.90;;;;;;5070465;28;20109;-75
2021/03/06 02:52:16;;;;;;;34.55;5.05;;;1.30;99.90;;;;;;5070246;28;20066;-75
2021/03/06 02:54:41;;;;;;;28.88;3.90;;;1.30;99.90;;;;;;5063973;28;20033;-75
2021/03/06 02:57:07;;;;;;;24.83;3.63;;;1.30;99.90;;;;;;5051766;28;20029;-75
2021/03/06 02:59:55;;;;;;;34.80;3.58;;;1.30;99.90;;;;;;5051682;28;20033;-74
2021/03/06 03:02:43;;;;;;;20.80;3.70;;;1.30;99.90;;;;;;5058789;28;20055;-74
2021/03/06 03:05:18;;;;;;;35.97;5.00;;;1.30;99.90;;;;;;5069497;28;20392;-75
2021/03/06 03:08:08;;;;;;;46.10;4.57;;;1.20;99.90;;;;;;5071598;28;20033;-75
2021/03/06 03:10:36;;;;;;;29.98;4.97;;;1.20;99.90;;;;;;5070940;28;20043;-75
2021/03/06 03:13:11;;;;;;;34.78;5.05;;;1.10;99.90;;;;;;5070482;28;20503;-75
2021/03/06 03:15:41;;;;;;;46.60;4.05;;;1.10;99.90;;;;;;5052919;28;20039;-75
2021/03/06 03:18:13;;;;;;;27.98;4.25;;;1.10;99.90;;;;;;5051470;28;20060;-75
2021/03/06 03:20:51;;;;;;;24.13;4.15;;;1.00;99.90;;;;;;5051396;28;20025;-75
2021/03/06 03:23:41;;;;;;;37.38;5.28;;;1.00;99.90;;;;;;5050419;28;20477;-75
2021/03/06 03:26:11;;;;;;;40.42;4.78;;;1.00;99.90;;;;;;5050602;28;20095;-75
2021/03/06 03:28:40;;;;;;;41.22;4.22;;;0.90;99.90;;;;;;5051013;28;20029;-75
2021/03/06 03:31:08;;;;;;;45.00;4.07;;;0.80;99.90;;;;;;5071217;28;20024;-75
2021/03/06 03:33:35;;;;;;;30.23;4.60;;;0.60;99.90;;;;;;5071307;28;20051;-75
2021/03/06 03:36:02;;;;;;;36.80;4.70;;;0.60;99.90;;;;;;5070428;28;20385;-75
2021/03/06 03:38:29;;;;;;;56.33;7.35;;;0.60;99.90;;;;;;5069951;28;20028;-75
2021/03/06 03:40:55;;;;;;;41.15;5.05;;;0.60;99.90;;;;;;5070513;28;20492;-75
2021/03/06 03:43:23;;;;;;;41.55;5.13;;;0.60;99.90;;;;;;5060735;28;20029;-75
2021/03/06 03:45:50;;;;;;;33.90;4.97;;;0.60;99.90;;;;;;5050868;28;20666;-75
2021/03/06 03:48:16;;;;;;;30.15;4.50;;;0.70;99.90;;;;;;5051247;28;20053;-75
2021/03/06 03:50:42;;;;;;;52.10;5.22;;;0.80;99.90;;;;;;5049127;28;20061;-75
2021/03/06 03:53:11;;;;;;;38.25;4.88;;;0.90;99.90;;;;;;5050014;28;20067;-75
2021/03/06 03:55:36;;;;;;;55.17;5.53;;;0.90;99.90;;;;;;5049165;28;20057;-75
2021/03/06 03:58:02;;;;;;;30.45;5.45;;;1.00;99.90;;;;;;5050832;28;20067;-75
2021/03/06 04:00:28;;;;;;;33.83;5.50;;;1.10;99.90;;;;;;5065758;28;20443;-75
2021/03/06 04:02:54;;;;;;;30.10;4.57;;;1.10;99.90;;;;;;5070917;28;20093;-75
2021/03/06 04:05:20;;;;;;;40.05;4.95;;;1.10;99.90;;;;;;5069024;28;20021;-75
2021/03/06 04:07:51;;;;;;;31.75;4.10;;;1.20;99.90;;;;;;5071011;28;20107;-75
2021/03/06 04:10:18;;;;;;;29.08;4.85;;;1.20;99.90;;;;;;5060497;28;20031;-75
2021/03/06 04:12:45;;;;;;;29.17;4.38;;;1.30;99.90;;;;;;5050981;28;20037;-74
2021/03/06 04:15:12;;;;;;;36.30;4.88;;;1.40;99.90;;;;;;5050595;28;20017;-75
2021/03/06 04:17:39;;;;;;;31.80;5.80;;;1.40;99.90;;;;;;5049480;28;20032;-74
2021/03/06 04:20:07;;;;;;;34.38;4.50;;;1.50;99.90;;;;;;5056404;28;20021;-74
2021/03/06 04:22:33;;;;;;;30.75;4.72;;;1.50;99.90;;;;;;5060527;28;20033;-75
2021/03/06 04:24:59;;;;;;;48.17;9.00;;;1.50;99.90;;;;;;5065731;28;20036;-75
2021/03/06 04:27:25;;;;;;;28.90;4.07;;;1.60;99.90;;;;;;5051466;28;20064;-75
2021/03/06 04:29:51;;;;;;;30.23;4.05;;;1.60;99.90;;;;;;5054558;28;20365;-75
2021/03/06 04:32:17;;;;;;;24.30;4.43;;;1.60;99.90;;;;;;5053021;28;20036;-75
2021/03/06 04:34:43;;;;;;;26.15;4.40;;;1.60;99.90;;;;;;5052556;28;20091;-75
2021/03/06 04:37:08;;;;;;;35.63;4.57;;;1.70;99.90;;;;;;5054376;28;20056;-75
2021/03/06 04:39:34;;;;;;;21.13;3.85;;;1.80;99.90;;;;;;5058526;28;20060;-75
2021/03/06 04:42:00;;;;;;;33.80;4.88;;;1.80;99.90;;;;;;5072904;28;20021;-75
2021/03/06 04:44:26;;;;;;;34.67;3.75;;;1.80;99.90;;;;;;5067219;28;20036;-75
2021/03/06 04:46:52;;;;;;;34.28;4.43;;;1.90;99.90;;;;;;5054101;28;20029;-75
2021/03/06 04:49:18;;;;;;;43.78;4.55;;;1.90;99.90;;;;;;5052758;28;20025;-75
2021/03/06 04:51:43;;;;;;;31.55;4.05;;;1.90;99.90;;;;;;5054199;28;20025;-75
2021/03/06 04:54:09;;;;;;;34.25;5.00;;;1.90;99.90;;;;;;5053369;28;20021;-75
2021/03/06 04:56:35;;;;;;;33.00;5.50;;;1.90;99.90;;;;;;5054098;28;20378;-75
2021/03/06 04:59:00;;;;;;;32.00;4.47;;;2.00;99.90;;;;;;5056350;28;20525;-75
2021/03/06 05:01:26;;;;;;;34.13;3.97;;;2.00;99.90;;;;;;5073754;28;20028;-75
2021/03/06 05:03:52;;;;;;;28.23;5.05;;;2.00;99.90;;;;;;5073131;28;20028;-75
2021/03/06 05:06:17;;;;;;;41.85;4.85;;;2.10;99.90;;;;;;5073744;28;20575;-75
2021/03/06 05:08:43;;;;;;;40.10;4.05;;;2.10;99.90;;;;;;5073697;28;20107;-75
2021/03/06 05:11:09;;;;;;;41.92;3.70;;;2.10;99.90;;;;;;5056205;28;20033;-75
2021/03/06 05:13:35;;;;;;;39.15;4.85;;;2.10;99.90;;;;;;5053575;28;20041;-75
2021/03/06 05:16:01;;;;;;;33.88;4.60;;;2.10;99.90;;;;;;5053470;28;20029;-75
2021/03/06 05:18:27;;;;;;;27.17;4.05;;;2.10;99.90;;;;;;5052217;28;20122;-75
2021/03/06 05:20:53;;;;;;;36.25;3.97;;;2.20;99.90;;;;;;5054536;28;20592;-75
2021/03/06 05:23:19;;;;;;;41.88;5.05;;;2.20;99.90;;;;;;5052390;28;20115;-75
2021/03/06 05:25:44;;;;;;;43.90;5.88;;;2.20;99.90;;;;;;5052848;28;20037;-75
2021/03/06 05:28:10;;;;;;;27.52;3.78;;;2.30;99.90;;;;;;5053310;28;20060;-75
2021/03/06 05:30:36;;;;;;;40.53;4.25;;;2.40;99.90;;;;;;5053608;28;20032;-75
2021/03/06 05:33:01;;;;;;;48.20;4.63;;;2.40;99.90;;;;;;5053158;28;20021;-75
2021/03/06 05:35:27;;;;;;;34.78;4.03;;;2.40;99.90;;;;;;5052691;28;20021;-75
2021/03/06 05:37:52;;;;;;;38.55;3.67;;;2.40;99.90;;;;;;5053196;28;20025;-75
2021/03/06 05:40:19;;;;;;;52.90;5.25;;;2.40;99.90;;;;;;5063203;28;20028;-74
2021/03/06 05:42:45;;;;;;;42.35;4.75;;;2.50;99.90;;;;;;5058429;28;20036;-75
2021/03/06 05:45:11;;;;;;;48.30;4.82;;;2.60;99.90;;;;;;5052619;28;20033;-74
2021/03/06 05:47:37;;;;;;;45.88;6.05;;;2.60;99.90;;;;;;5052929;28;20155;-75
2021/03/06 05:50:05;;;;;;;48.38;5.60;;;2.60;99.90;;;;;;5051979;28;20389;-75
2021/03/06 05:52:32;;;;;;;32.72;4.75;;;2.70;99.90;;;;;;5052824;28;20036;-75
2021/03/06 05:54:59;;;;;;;30.15;4.50;;;2.70;99.90;;;;;;5051014;28;20021;-75
2021/03/06 05:57:25;;;;;;;35.03;5.05;;;2.70;99.90;;;;;;5053103;28;20396;-75
2021/03/06 05:59:50;;;;;;;39.95;5.05;;;2.70;99.90;;;;;;5062016;28;20029;-75
2021/03/06 06:02:17;;;;;;;30.42;4.95;;;2.70;99.90;;;;;;5068229;28;20116;-75
2021/03/06 06:04:45;;;;;;;35.42;4.70;;;2.80;99.90;;;;;;5051999;28;20017;-75
2021/03/06 06:07:11;;;;;;;30.73;5.53;;;2.80;99.90;;;;;;5052609;28;20488;-75
2021/03/06 06:09:38;;;;;;;38.60;3.95;;;2.80;99.90;;;;;;5051648;28;20039;-75
2021/03/06 06:12:07;;;;;;;44.40;5.00;;;2.80;99.90;;;;;;5052472;28;20061;-75
2021/03/06 06:14:33;;;;;;;50.38;5.38;;;2.90;99.90;;;;;;5067431;28;20086;-75
2021/03/06 06:17:03;;;;;;;38.38;4.93;;;2.80;99.90;;;;;;5051159;28;20090;-75
2021/03/06 06:19:32;;;;;;;20.98;4.30;;;2.80;99.90;;;;;;5052783;28;20032;-75
2021/03/06 06:22:00;;;;;;;35.67;4.22;;;2.80;99.90;;;;;;5052590;28;20064;-75
2021/03/06 06:24:26;;;;;;;30.15;3.97;;;3.00;99.90;;;;;;5051769;28;20025;-75
2021/03/06 06:26:54;;;;;;;36.60;4.90;;;2.90;99.90;;;;;;5050843;28;20108;-75
2021/03/06 06:29:39;;;;;;;21.65;4.65;;;2.90;99.90;;;;;;5052431;28;20108;-75
2021/03/06 06:32:07;;;;;;;31.42;3.92;;;2.90;99.90;;;;;;5067493;28;20029;-75
2021/03/06 06:34:33;;;;;;;36.60;4.50;;;3.00;99.90;;;;;;5051606;28;20105;-75
2021/03/06 06:37:06;;;;;;;45.45;5.35;;;3.00;99.90;;;;;;5067237;28;20036;-75
2021/03/06 06:39:31;;;;;;;29.42;3.45;;;3.10;99.90;;;;;;5055712;28;20043;-75
2021/03/06 06:42:01;;;;;;;29.73;4.50;;;3.10;99.90;;;;;;5071930;28;20480;-75
2021/03/06 06:44:29;;;;;;;46.25;4.97;;;3.20;99.90;;;;;;5065077;28;20480;-75
2021/03/06 06:46:56;;;;;;;40.65;4.75;;;3.20;99.90;;;;;;5050621;28;20031;-75
2021/03/06 06:49:23;;;;;;;37.53;5.47;;;3.20;99.90;;;;;;5050645;28;20021;-75
2021/03/06 06:52:00;;;;;;;38.42;4.32;;;3.20;99.90;;;;;;5051263;28;20104;-75
2021/03/06 06:54:26;;;;;;;33.13;4.32;;;3.20;99.90;;;;;;5051172;28;20167;-75
2021/03/06 06:57:06;;;;;;;33.25;4.68;;;3.30;99.90;;;;;;5051820;28;20031;-75
2021/03/06 06:59:32;;;;;;;35.80;5.22;;;3.30;99.90;;;;;;5058266;28;20033;-75
2021/03/06 07:01:57;;;;;;;27.00;5.72;;;3.30;99.90;;;;;;5066761;28;20029;-75
2021/03/06 07:04:23;;;;;;;37.78;4.90;;;3.40;99.90;;;;;;5050984;28;20029;-75
2021/03/06 07:06:58;;;;;;;30.15;4.43;;;3.40;99.90;;;;;;5051644;28;20025;-75
2021/03/06 07:09:24;;;;;;;40.95;5.18;;;3.50;99.90;;;;;;5051618;28;20078;-75
2021/03/06 07:11:50;;;;;;;39.10;4.85;;;3.60;99.90;;;;;;5051759;28;20029;-75
2021/03/06 07:14:36;;;;;;;25.00;5.03;;;3.60;99.90;;;;;;5051493;28;20025;-75
2021/03/06 07:17:03;;;;;;;24.23;4.60;;;3.70;99.90;;;;;;5051297;28;20032;-75
2021/03/06 07:19:32;;;;;;;21.83;4.68;;;3.80;99.90;;;;;;5051504;28;20481;-75
2021/03/06 07:21:59;;;;;;;24.35;4.72;;;3.90;99.90;;;;;;5050117;28;20020;-75
2021/03/06 07:24:26;;;;;;;28.17;4.13;;;3.90;99.90;;;;;;5066457;28;20024;-75
2021/03/06 07:26:52;;;;;;;23.95;3.95;;;3.90;99.90;;;;;;5051499;28;20025;-75
2021/03/06 07:29:19;;;;;;;23.45;3.88;;;3.90;99.90;;;;;;5051523;28;20036;-75
2021/03/06 07:31:51;;;;;;;17.67;3.53;;;4.00;99.90;;;;;;5051333;28;20496;-75
2021/03/06 07:34:20;;;;;;;30.58;4.18;;;4.10;99.90;;;;;;5050737;28;20501;-75
2021/03/06 07:36:47;;;;;;;38.50;5.85;;;4.10;99.90;;;;;;5051349;28;20071;-75
2021/03/06 07:39:17;;;;;;;29.73;4.13;;;4.10;99.90;;;;;;5050252;28;20025;-75
2021/03/06 07:41:52;;;;;;;54.78;4.97;;;4.10;99.90;;;;;;5050335;28;20036;-75
2021/03/06 07:44:21;;;;;;;35.80;4.07;;;4.10;99.90;;;;;;5053406;28;20135;-75
2021/03/06 07:46:48;;;;;;;31.92;3.65;;;4.20;99.90;;;;;;5050685;28;20036;-75
2021/03/06 07:49:17;;;;;;;24.13;3.63;;;4.20;99.90;;;;;;5051685;28;20046;-75
2021/03/06 07:51:46;;;;;;;29.95;3.63;;;4.20;99.90;;;;;;5065015;28;20512;-75
2021/03/06 07:54:14;;;;;;;24.60;3.83;;;4.20;99.90;;;;;;5068853;28;20020;-75
2021/03/06 07:56:41;;;;;;;33.67;4.70;;;4.30;99.90;;;;;;5069876;28;20024;-75
2021/03/06 07:59:07;;;;;;;41.85;4.18;;;4.30;99.90;;;;;;5066781;28;20017;-75
2021/03/06 08:01:35;;;;;;;26.35;3.20;;;4.40;99.90;;;;;;5051020;28;20025;-75
2021/03/06 08:04:01;;;;;;;24.30;3.45;;;4.40;99.90;;;;;;5072035;28;20116;-75
2021/03/06 08:06:34;;;;;;;28.05;7.65;;;4.50;99.90;;;;;;5073621;28;20070;-75
2021/03/06 08:09:04;;;;;;;28.95;5.45;;;4.60;99.90;;;;;;5073242;28;20028;-74
2021/03/06 08:11:32;;;;;;;27.58;7.05;;;4.60;99.90;;;;;;5052335;28;20021;-75
2021/03/06 08:14:02;;;;;;;30.23;6.25;;;4.70;99.90;;;;;;5057194;28;20017;-75
2021/03/06 08:16:27;;;;;;;43.53;8.07;;;4.70;99.90;;;;;;5052708;28;20029;-75
2021/03/06 08:18:54;;;;;;;20.83;3.78;;;4.80;99.90;;;;;;5068159;28;20086;-75
2021/03/06 08:21:30;;;;;;;26.52;4.82;;;4.70;99.90;;;;;;5072344;28;20024;-75
2021/03/06 08:24:26;;;;;;;16.35;2.50;;;4.90;99.90;;;;;;5066834;28;20028;-75
2021/03/06 08:27:01;;;;;;;30.92;5.07;;;5.00;99.90;;;;;;5056664;28;20048;-75
2021/03/06 08:29:27;;;;;;;25.83;4.45;;;5.10;99.90;;;;;;5075157;28;20064;-75
2021/03/06 08:32:02;;;;;;;10.32;2.45;;;5.10;99.90;;;;;;5051614;28;20059;-76
2021/03/06 08:34:49;;;;;;;21.08;2.40;;;5.10;99.90;;;;;;5052429;28;20032;-75
2021/03/06 08:37:15;;;;;;;41.90;7.72;;;5.00;99.90;;;;;;5069502;28;20401;-75
2021/03/06 08:39:54;;;;;;;23.40;5.93;;;5.00;99.90;;;;;;5069616;28;20025;-75
2021/03/06 08:42:22;;;;;;;28.45;3.03;;;4.90;99.90;;;;;;5053930;28;20032;-75
2021/03/06 08:44:49;;;;;;;18.35;2.80;;;5.00;99.90;;;;;;5053658;28;20098;-75
2021/03/06 08:47:23;;;;;;;49.17;15.63;;;5.00;99.90;;;;;;5054026;28;20120;-75
2021/03/06 08:49:51;;;;;;;14.27;3.10;;;5.00;99.90;;;;;;5054121;28;20117;-75
2021/03/06 08:52:17;;;;;;;12.15;2.67;;;5.10;99.90;;;;;;5053899;28;20099;-75
2021/03/06 08:54:43;;;;;;;19.60;3.83;;;5.20;99.90;;;;;;5056891;28;20532;-75
2021/03/06 08:57:38;;;;;;;16.05;2.38;;;5.30;99.90;;;;;;5053828;28;20025;-75
2021/03/06 09:00:27;;;;;;;21.85;4.15;;;5.40;99.90;;;;;;5054178;28;20021;-75
2021/03/06 09:02:53;;;;;;;19.85;3.83;;;5.40;99.90;;;;;;5053559;28;20017;-76
2021/03/06 09:05:27;;;;;;;22.55;2.95;;;5.60;99.90;;;;;;5060412;28;20480;-75
2021/03/06 09:07:55;;;;;;;27.17;2.30;;;5.60;99.90;;;;;;5058727;28;20648;-75
2021/03/06 09:10:26;;;;;;;21.20;3.58;;;5.60;99.90;;;;;;5066238;28;20029;-75
2021/03/06 09:12:54;;;;;;;17.13;3.28;;;5.60;99.90;;;;;;5053545;28;20086;-75
2021/03/06 09:15:37;;;;;;;27.13;3.50;;;5.60;99.90;;;;;;5064447;28;20519;-75
2021/03/06 09:18:05;;;;;;;21.15;3.20;;;5.80;99.90;;;;;;5072221;28;20107;-76
2021/03/06 09:20:35;;;;;;;12.52;3.13;;;5.80;99.90;;;;;;5073432;28;20032;-76
2021/03/06 09:23:01;;;;;;;26.50;3.97;;;5.60;99.90;;;;;;5073419;28;20374;-75
2021/03/06 09:25:32;;;;;;;22.10;2.88;;;5.70;99.90;;;;;;5061380;28;20033;-76
2021/03/06 09:27:58;;;;;;;18.67;2.72;;;5.80;99.90;;;;;;5052282;28;20029;-75
2021/03/06 09:30:27;;;;;;;14.27;2.92;;;5.90;99.90;;;;;;5053414;28;20132;-75
2021/03/06 09:32:54;;;;;;;21.48;3.78;;;5.80;99.90;;;;;;5053556;28;20070;-75
2021/03/06 09:35:21;;;;;;;29.95;3.58;;;5.90;99.90;;;;;;5059586;28;20024;-75
2021/03/06 09:38:02;;;;;;;25.10;4.15;;;5.90;99.90;;;;;;5073138;28;20025;-75
2021/03/06 09:40:27;;;;;;;17.23;2.22;;;5.80;99.90;;;;;;5073172;28;20024;-75
2021/03/06 09:42:54;;;;;;;22.08;2.85;;;5.90;99.90;;;;;;5072821;28;20083;-75
2021/03/06 09:45:25;;;;;;;21.73;2.60;;;6.00;99.90;;;;;;5059204;28;20079;-76
2021/03/06 09:47:50;;;;;;;17.45;2.75;;;6.00;99.90;;;;;;5052904;28;20025;-75
2021/03/06 09:50:16;;;;;;;20.95;2.47;;;6.00;99.90;;;;;;5052981;28;20675;-75
2021/03/06 09:52:41;;;;;;;16.30;3.13;;;6.00;99.90;;;;;;5052777;28;20017;-76
2021/03/06 09:55:19;;;;;;;18.27;2.63;;;5.80;99.90;;;;;;5057461;28;20020;-75
2021/03/06 09:57:45;;;;;;;14.13;2.40;;;5.80;99.90;;;;;;5072810;28;20518;-75
2021/03/06 10:00:22;;;;;;;18.20;3.33;;;5.90;99.90;;;;;;5071874;28;20099;-75
2021/03/06 10:02:49;;;;;;;17.13;2.55;;;6.10;99.90;;;;;;5072514;28;20021;-75
2021/03/06 10:05:19;;;;;;;11.75;2.90;;;6.20;99.90;;;;;;5069712;28;20103;-75
2021/03/06 10:07:45;;;;;;;23.75;3.83;;;6.20;99.90;;;;;;5072143;28;20369;-75
2021/03/06 10:10:11;;;;;;;17.13;2.10;;;6.30;99.90;;;;;;5072396;28;20024;-75
2021/03/06 10:12:43;;;;;;;9.93;2.38;;;6.30;99.90;;;;;;5070836;28;20046;-75
2021/03/06 10:15:11;;;;;;;9.18;1.92;;;6.40;99.90;;;;;;5071026;28;20058;-75
2021/03/06 10:17:37;;;;;;;26.80;3.88;;;6.50;99.90;;;;;;5072239;28;20093;-75
2021/03/06 10:20:03;;;;;;;42.30;18.85;;;6.40;99.90;;;;;;5072120;28;20544;-75
2021/03/06 10:22:28;;;;;;;14.98;3.75;;;6.20;99.90;;;;;;5072262;28;20032;-76
2021/03/06 10:24:56;;;;;;;22.20;5.05;;;6.50;99.90;;;;;;5064039;28;20021;-75
2021/03/06 10:27:37;;;;;;;21.05;3.17;;;6.80;99.90;;;;;;5052598;28;20167;-75
2021/03/06 10:30:25;;;;;;;14.55;2.95;;;7.20;99.90;;;;;;5052650;28;20036;-75
2021/03/06 10:32:52;;;;;;;17.67;2.95;;;6.90;99.90;;;;;;5067255;28;20538;-75
2021/03/06 10:35:49;;;;;;;14.75;2.95;;;7.00;99.90;;;;;;5070397;28;20037;-75
2021/03/06 10:38:28;;;;;;;19.30;5.10;;;7.30;99.90;;;;;;5052033;28;20584;-75
2021/03/06 10:40:56;;;;;;;13.13;2.03;;;7.40;99.90;;;;;;5051776;28;20401;-75
2021/03/06 10:43:41;;;;;;;9.38;2.15;;;7.20;99.90;;;;;;5051924;28;20075;-76
2021/03/06 10:46:20;;;;;;;9.82;1.90;;;7.10;99.90;;;;;;5052144;28;20036;-75
2021/03/06 10:48:54;;;;;;;13.60;2.13;;;6.70;99.90;;;;;;5052124;28;20519;-75
2021/03/06 10:51:21;;;;;;;13.13;2.03;;;6.50;99.90;;;;;;5051621;28;20063;-75
2021/03/06 10:54:00;;;;;;;9.93;2.20;;;6.50;99.90;;;;;;5056057;28;20031;-75
2021/03/06 10:56:26;;;;;;;12.32;2.97;;;6.50;99.90;;;;;;5051602;28;20047;-75
2021/03/06 10:58:52;;;;;;;13.50;2.53;;;6.60;99.90;;;;;;5051603;28;20025;-75
2021/03/06 11:01:18;;;;;;;16.13;2.65;;;6.50;99.90;;;;;;5067132;28;20056;-76
2021/03/06 11:03:48;;;;;;;7.72;1.73;;;6.20;99.90;;;;;;5050916;28;20053;-76
2021/03/06 11:06:15;;;;;;;15.82;3.50;;;6.10;99.90;;;;;;5051599;28;20431;-75
2021/03/06 11:08:42;;;;;;;10.65;2.10;;;6.30;99.90;;;;;;5051440;28;20096;-75
2021/03/06 11:11:08;;;;;;;9.93;1.98;;;6.30;99.90;;;;;;5066760;28;20032;-75
2021/03/06 11:13:45;;;;;;;16.08;1.83;;;6.60;99.90;;;;;;5050516;28;20056;-76
2021/03/06 11:16:12;;;;;;;10.25;1.90;;;6.50;99.90;;;;;;5051394;28;20025;-76
2021/03/06 11:18:39;;;;;;;13.07;1.50;;;6.60;99.90;;;;;;5066630;28;20040;-76
2021/03/06 11:21:10;;;;;;;16.10;1.80;;;6.90;99.90;;;;;;5051386;28;20044;-75
2021/03/06 11:23:36;;;;;;;12.43;1.35;;;6.70;99.90;;;;;;5051281;28;20033;-76
2021/03/06 11:26:02;;;;;;;5.88;1.55;;;6.80;99.90;;;;;;5050892;28;20021;-75
2021/03/06 11:28:27;;;;;;;8.95;1.60;;;7.00;99.90;;;;;;5051265;28;20442;-76
2021/03/06 11:30:53;;;;;;;18.35;3.10;;;7.00;99.90;;;;;;5051484;28;20541;-76
2021/03/06 11:33:19;;;;;;;10.98;2.17;;;7.10;99.90;;;;;;5066579;28;20500;-76
2021/03/06 11:35:48;;;;;;;28.80;2.80;;;7.20;99.90;;;;;;5050164;28;20021;-75
2021/03/06 11:38:16;;;;;;;12.73;2.03;;;7.40;99.90;;;;;;5055265;28;20029;-76
2021/03/06 11:40:45;;;;;;;11.95;1.60;;;7.10;99.90;;;;;;5055308;28;20017;-75
2021/03/06 11:43:11;;;;;;;8.45;1.83;;;6.80;99.90;;;;;;5055162;28;20032;-75
2021/03/06 11:45:37;;;;;;;13.85;1.83;;;6.60;99.90;;;;;;5054479;28;20107;-75
2021/03/06 11:48:04;;;;;;;13.25;1.83;;;6.40;99.90;;;;;;5055173;28;20385;-75
2021/03/06 11:50:33;;;;;;;9.38;2.15;;;6.20;99.90;;;;;;5055238;28;20028;-75
2021/03/06 11:52:59;;;;;;;18.67;1.92;;;6.20;99.90;;;;;;5054950;28;20488;-75
2021/03/06 11:55:25;;;;;;;10.43;1.75;;;6.20;99.90;;;;;;5053357;28;20056;-75
2021/03/06 11:57:51;;;;;;;24.67;2.80;;;6.10;99.90;;;;;;5055367;28;20059;-75
2021/03/06 12:00:20;;;;;;;11.15;2.45;;;6.00;99.90;;;;;;5053625;28;20060;-75
2021/03/06 12:02:45;;;;;;;8.55;1.58;;;6.00;99.90;;;;;;5054830;28;20464;-75
2021/03/06 12:05:12;;;;;;;9.75;2.17;;;5.90;99.90;;;;;;5054620;28;20029;-75
2021/03/06 12:07:38;;;;;;;9.50;1.98;;;5.70;99.90;;;;;;5070166;28;20542;-75
2021/03/06 12:10:05;;;;;;;8.88;1.83;;;5.60;99.90;;;;;;5054698;28;20108;-75
2021/03/06 12:12:30;;;;;;;11.65;2.33;;;5.50;99.90;;;;;;5054652;28;20017;-75
2021/03/06 12:14:56;;;;;;;7.95;2.20;;;5.50;99.90;;;;;;5053922;28;20496;-76
2021/03/06 12:17:22;;;;;;;5.38;1.50;;;5.70;99.90;;;;;;5054616;28;20439;-75
2021/03/06 12:19:47;;;;;;;9.73;1.92;;;5.50;99.90;;;;;;5054518;28;20494;-75
2021/03/06 12:22:13;;;;;;;12.52;2.08;;;5.50;99.90;;;;;;5054514;28;20025;-75
2021/03/06 12:24:38;;;;;;;14.68;2.00;;;5.50;99.90;;;;;;5053983;28;20018;-76
2021/03/06 12:27:04;;;;;;;14.38;1.85;;;5.50;99.90;;;;;;5054535;28;20100;-76
2021/03/06 12:29:30;;;;;;;17.45;2.45;;;5.50;99.90;;;;;;5054124;28;20040;-75
2021/03/06 12:31:55;;;;;;;11.45;1.92;;;5.60;99.90;;;;;;5053126;28;20025;-75
2021/03/06 12:34:21;;;;;;;10.00;1.50;;;5.60;99.90;;;;;;5053767;28;20120;-75
2021/03/06 12:36:47;;;;;;;10.75;1.65;;;5.60;99.90;;;;;;5054426;28;20021;-75
2021/03/06 12:39:12;;;;;;;9.23;1.77;;;5.60;99.90;;;;;;5054169;28;20036;-75
2021/03/06 12:41:38;;;;;;;8.07;1.63;;;5.50;99.90;;;;;;5054524;28;20020;-76
2021/03/06 12:44:05;;;;;;;4.65;1.67;;;5.50;99.90;;;;;;5053523;28;20029;-75
2021/03/06 12:46:32;;;;;;;27.38;3.15;;;5.40;99.90;;;;;;5054173;28;20079;-76
2021/03/06 12:48:58;;;;;;;12.75;2.53;;;5.40;99.90;;;;;;5068516;28;20487;-75
2021/03/06 12:51:23;;;;;;;7.38;1.70;;;5.70;99.90;;;;;;5054010;28;20121;-76
2021/03/06 12:53:49;;;;;;;17.02;2.10;;;5.60;99.90;;;;;;5053423;28;20108;-75
2021/03/06 12:56:15;;;;;;;17.23;1.83;;;5.60;99.90;;;;;;5052746;28;20037;-76